Pagina principale
METAR-TAF:

METAR-TAF

Aeroporti :

Altenstadt, Germania

latitudine: 47-50N, longitudine: 010-52E, altezza: 739 m

Osservazione

Il bollettino è stato emesso 59 minuti fa, alle 12:20 UTC
Vento 12 kt da ovest
Temperature 9°C
Umidità 37%
Pressione 1017 hPa
Visibilità 10 km o più
Poco nuvoloso ad un'altezza di 30000 ft

METAR: ETHA 061220Z 27012KT 9999 FEW300 09/M05 Q1017 BLU+

Ora: 14:19 (13:19 UTC)

Previsione

Il bollettino è stato emesso 3 ore e 17 minuti fa, alle 10:02 UTC
Previsione valida dal 06 alle 09 UTC al 06 alle 18 UTC
Vento 8 kt da ovest/sud-ovest
Visibilità: 1100 m
Poco nuvoloso ad un'altezza di 30000 ft

TAF: ETHA 061002Z 0609/0618 24008KT 9999 NSW FEW300 CANCEL 1100

Osservazioni e previsioni meteorologiche di più di 4000 aeroporti (messaggi METAR e TAF).

Le stazioni disponibili sono rappresentate dai dischi gialli e rossi sulla carta.

Puntare il mouse per vedere il nome della stazione.

Clicca sopra per visualizzare le osservazioni e previsioni meteorologiche.

Per cambiare la mappa : fare clic sui pulsanti verdi con una croce nera per ingrandire, il pulsante verde con un trattino per diminuire, o sulla freccia verde per le mappe adiacenti.


METAR-TAF: